Time;durP1;ratioP1;P1;durP2;ratioP2;P2;SDS_P1;SDS_P2;PMS_P1;PMS_P2;Temp;Humidity;BMP_temperature;BMP_pressure;BME280_temperature;BME280_humidity;BME280_pressure;Samples;Min_cycle;Max_cycle;Signal;HPM_P1;HPM_P2
2021/07/07 00:00:54;;;;;;;0.00;0.00;;;;;;;24.70;41.27;100345.53;5089286;28;20059;-60
2021/07/07 00:03:20;;;;;;;0.10;0.10;;;;;;;24.70;41.28;100345.53;5071492;28;20044;-60
2021/07/07 00:05:46;;;;;;;0.47;0.47;;;;;;;24.71;41.26;100349.00;5089279;28;20048;-59
2021/07/07 00:08:12;;;;;;;0.30;0.30;;;;;;;24.73;41.34;100358.56;5088136;28;20059;-60
2021/07/07 00:10:38;;;;;;;0.10;0.10;;;;;;;24.67;41.46;100356.50;5089254;28;20063;-60
2021/07/07 00:13:04;;;;;;;0.10;0.10;;;;;;;24.69;41.40;100357.19;5089185;28;20040;-60
2021/07/07 00:15:33;;;;;;;0.20;0.20;;;;;;;24.70;41.54;100360.72;5071163;28;20052;-59
2021/07/07 00:18:03;;;;;;;0.40;0.40;;;;;;;24.69;41.52;100361.69;5089209;28;20169;-59
2021/07/07 00:20:35;;;;;;;0.10;0.10;;;;;;;24.69;41.51;100365.22;5089132;28;20059;-60
2021/07/07 00:23:01;;;;;;;0.30;0.30;;;;;;;24.65;41.47;100365.69;5070976;28;20055;-60
2021/07/07 00:25:28;;;;;;;0.10;0.10;;;;;;;24.67;41.59;100369.06;5071131;28;20075;-59
2021/07/07 00:27:55;;;;;;;0.00;0.00;;;;;;;24.64;41.72;100370.19;5089079;28;20537;-59
2021/07/07 00:30:21;;;;;;;0.10;0.10;;;;;;;24.62;41.68;100377.53;5088888;28;20132;-60
2021/07/07 00:32:47;;;;;;;0.10;0.10;;;;;;;24.60;41.79;100368.84;5088884;28;20082;-59
2021/07/07 00:35:13;;;;;;;0.10;0.10;;;;;;;24.58;41.78;100376.19;5089111;28;20048;-59
2021/07/07 00:37:39;;;;;;;0.10;0.10;;;;;;;24.59;41.81;100377.84;5088722;28;20043;-60
2021/07/07 00:40:05;;;;;;;0.35;0.32;;;;;;;24.57;41.78;100377.19;5071009;28;20506;-58
2021/07/07 00:42:31;;;;;;;0.10;0.10;;;;;;;24.56;42.00;100383.53;5088674;28;20056;-60
2021/07/07 00:44:57;;;;;;;0.00;0.00;;;;;;;24.56;41.91;100388.03;5090273;28;20048;-59
2021/07/07 00:47:23;;;;;;;0.40;0.40;;;;;;;24.49;41.82;100376.31;5092302;28;20075;-59
2021/07/07 00:49:49;;;;;;;0.10;0.10;;;;;;;24.52;42.04;100384.00;5074377;28;20117;-59
2021/07/07 00:52:17;;;;;;;0.05;0.05;;;;;;;24.50;42.08;100386.00;5091430;28;20063;-60
2021/07/07 00:54:43;;;;;;;0.20;0.20;;;;;;;24.54;42.04;100398.84;5074810;28;20078;-59
2021/07/07 00:57:10;;;;;;;0.00;0.00;;;;;;;24.49;41.96;100387.00;5074203;28;20052;-60
2021/07/07 00:59:36;;;;;;;0.10;0.10;;;;;;;24.51;42.05;100406.38;5074361;28;20044;-58
2021/07/07 01:02:03;;;;;;;0.25;0.25;;;;;;;24.47;42.25;100389.00;5074124;28;20063;-58
2021/07/07 01:04:29;;;;;;;0.10;0.10;;;;;;;24.48;42.06;100407.50;5074201;28;20120;-60
2021/07/07 01:06:55;;;;;;;0.17;0.17;;;;;;;24.50;42.09;100400.19;5092186;28;20512;-59
2021/07/07 01:09:21;;;;;;;0.63;0.63;;;;;;;24.51;42.13;100404.50;5091869;28;20059;-60
2021/07/07 01:11:47;;;;;;;0.10;0.10;;;;;;;24.48;42.21;100412.84;5092160;28;20105;-59
2021/07/07 01:14:13;;;;;;;0.20;0.20;;;;;;;24.50;42.16;100418.88;5092116;28;20044;-59
2021/07/07 01:16:43;;;;;;;0.35;0.35;;;;;;;24.51;42.16;100415.19;5091787;28;20048;-59
2021/07/07 01:19:10;;;;;;;0.10;0.10;;;;;;;24.50;42.08;100410.03;5091868;28;20047;-59
2021/07/07 01:21:41;;;;;;;0.00;0.00;;;;;;;24.55;42.10;100413.88;5091754;28;20056;-59
2021/07/07 01:24:07;;;;;;;0.13;0.13;;;;;;;24.66;41.91;100410.94;5073794;28;20109;-60
2021/07/07 01:26:33;;;;;;;0.10;0.10;;;;;;;25.06;41.21;100417.44;5073462;28;20040;-59
2021/07/07 01:28:59;;;;;;;0.30;0.30;;;;;;;25.41;40.55;100409.16;5091738;28;20371;-59
2021/07/07 01:31:25;;;;;;;0.10;0.10;;;;;;;25.76;39.90;100406.19;5091508;28;20063;-59
2021/07/07 01:33:51;;;;;;;0.10;0.10;;;;;;;26.11;39.24;100415.66;5040414;28;20043;-59
2021/07/07 01:36:17;;;;;;;0.10;0.10;;;;;;;26.46;39.11;100419.81;5091747;28;20451;-59
2021/07/07 01:38:43;;;;;;;0.10;0.10;;;;;;;26.66;38.36;100407.69;5073349;28;20051;-60
2021/07/07 01:41:09;;;;;;;0.10;0.10;;;;;;;27.03;37.76;100420.41;5090297;28;20051;-59
2021/07/07 01:43:35;;;;;;;0.15;0.15;;;;;;;27.26;37.42;100412.38;5091268;28;20051;-59
2021/07/07 01:46:01;;;;;;;0.10;0.10;;;;;;;27.65;36.74;100434.59;5091508;28;20506;-59
2021/07/07 01:48:27;;;;;;;0.10;0.10;;;;;;;27.90;36.20;100432.56;5091043;28;20139;-59
2021/07/07 01:50:52;;;;;;;0.17;0.17;;;;;;;28.16;35.86;100442.94;5091362;28;20105;-59
2021/07/07 01:53:18;;;;;;;0.30;0.30;;;;;;;28.37;35.65;100432.31;5091309;28;20568;-59
2021/07/07 01:55:44;;;;;;;0.15;0.15;;;;;;;28.65;34.94;100437.84;5072967;28;20465;-59
2021/07/07 01:58:10;;;;;;;0.10;0.10;;;;;;;28.92;34.60;100435.34;5091213;28;20040;-59
2021/07/07 02:00:36;;;;;;;1.48;0.70;;;;;;;29.15;34.43;100445.97;5073155;28;20427;-59
2021/07/07 02:03:02;;;;;;;0.28;0.28;;;;;;;29.34;33.92;100445.38;5091227;28;20105;-59
2021/07/07 02:05:33;;;;;;;0.10;0.10;;;;;;;29.60;33.45;100449.34;5091171;28;20345;-58
2021/07/07 02:07:59;;;;;;;0.00;0.00;;;;;;;29.84;33.25;100441.72;5090894;28;20048;-59
2021/07/07 02:10:25;;;;;;;0.20;0.20;;;;;;;30.10;32.76;100451.06;5090768;28;20044;-60
2021/07/07 02:12:51;;;;;;;0.17;0.17;;;;;;;30.32;32.37;100455.38;5090668;28;20072;-60
2021/07/07 02:15:25;;;;;;;0.10;0.10;;;;;;;30.55;32.10;100450.56;5090712;28;20098;-59
2021/07/07 02:17:51;;;;;;;0.00;0.00;;;;;;;30.74;31.68;100449.84;5072653;28;20047;-58
2021/07/07 02:20:19;;;;;;;0.10;0.10;;;;;;;30.96;31.38;100453.28;5090728;28;20100;-59
2021/07/07 02:22:45;;;;;;;2.83;0.57;;;;;;;31.16;31.17;100456.06;5090143;28;20105;-59
2021/07/07 02:25:19;;;;;;;0.25;0.25;;;;;;;31.35;30.67;100452.56;5090776;28;20043;-59
2021/07/07 02:27:46;;;;;;;0.10;0.10;;;;;;;31.54;30.53;100451.84;5090339;28;20064;-59
2021/07/07 02:30:13;;;;;;;0.10;0.10;;;;;;;31.73;30.40;100461.84;5090477;28;20081;-59
2021/07/07 02:32:39;;;;;;;0.10;0.10;;;;;;;31.89;30.01;100456.03;5090191;28;20043;-60
2021/07/07 02:35:07;;;;;;;0.10;0.10;;;;;;;32.07;30.03;100462.72;5090444;28;20117;-59
2021/07/07 02:37:33;;;;;;;0.10;0.10;;;;;;;32.24;29.64;100462.06;5090184;28;20506;-61
2021/07/07 02:39:59;;;;;;;0.10;0.10;;;;;;;32.34;29.64;100462.47;5090525;28;20502;-58
2021/07/07 02:42:25;;;;;;;0.05;0.05;;;;;;;32.56;29.44;100460.31;5090077;28;20078;-58
2021/07/07 02:44:51;;;;;;;0.10;0.10;;;;;;;32.70;29.06;100472.81;5039056;28;20076;-58
2021/07/07 02:47:17;;;;;;;0.20;0.20;;;;;;;32.84;28.92;100479.84;5090297;28;20130;-59
2021/07/07 02:49:43;;;;;;;0.10;0.10;;;;;;;32.99;29.13;100476.88;5089750;28;20055;-58
2021/07/07 02:52:09;;;;;;;0.10;0.10;;;;;;;33.13;28.91;100481.22;5090408;28;20055;-59
2021/07/07 02:54:35;;;;;;;0.38;0.20;;;;;;;33.26;28.83;100475.75;5089938;28;20040;-57
2021/07/07 02:57:01;;;;;;;0.68;0.68;;;;;;;33.41;28.49;100473.56;5090082;28;20438;-59
2021/07/07 02:59:27;;;;;;;0.10;0.10;;;;;;;33.55;28.04;100471.59;5089805;28;20058;-59
2021/07/07 03:01:53;;;;;;;0.10;0.10;;;;;;;33.70;28.41;100471.34;5072014;28;20044;-58
2021/07/07 03:04:20;;;;;;;0.47;0.47;;;;;;;33.89;27.91;100481.19;5089830;28;20044;-58
2021/07/07 03:06:46;;;;;;;0.30;0.30;;;;;;;33.92;27.94;100470.75;5089582;28;20455;-59
2021/07/07 03:09:12;;;;;;;0.10;0.10;;;;;;;34.13;27.70;100482.28;5089511;28;20465;-58
2021/07/07 03:11:38;;;;;;;0.10;0.10;;;;;;;34.22;27.80;100478.25;5089774;28;20245;-59
2021/07/07 03:14:04;;;;;;;0.05;0.05;;;;;;;34.36;27.36;100486.00;5089937;28;20384;-57
2021/07/07 03:16:31;;;;;;;0.20;0.20;;;;;;;34.48;27.46;100488.84;5089485;28;20097;-58
2021/07/07 03:18:56;;;;;;;0.10;0.10;;;;;;;34.58;27.04;100486.44;5089688;28;20568;-58
2021/07/07 03:21:23;;;;;;;0.20;0.20;;;;;;;34.73;26.98;100483.38;5089507;28;20040;-58
2021/07/07 03:23:48;;;;;;;0.10;0.10;;;;;;;34.84;27.26;100483.47;5089407;28;20087;-58
2021/07/07 03:26:15;;;;;;;0.15;0.15;;;;;;;34.97;26.80;100487.88;5089820;28;20469;-58
2021/07/07 03:28:41;;;;;;;0.15;0.15;;;;;;;35.09;26.54;100486.06;5089524;28;20052;-56
2021/07/07 03:31:07;;;;;;;0.20;0.20;;;;;;;35.25;26.72;100496.31;5089634;28;20399;-53
2021/07/07 03:33:33;;;;;;;0.10;0.10;;;;;;;35.38;26.36;100493.44;5089255;28;20059;-54
2021/07/07 03:36:00;;;;;;;0.10;0.10;;;;;;;35.49;26.37;100499.97;5071589;28;20040;-55
2021/07/07 03:38:26;;;;;;;0.10;0.10;;;;;;;35.57;26.30;100490.66;5089450;28;20060;-55
2021/07/07 03:40:52;;;;;;;0.30;0.30;;;;;;;35.66;26.05;100490.13;5089420;28;20078;-55
2021/07/07 03:43:18;;;;;;;0.38;0.38;;;;;;;35.88;25.92;100501.28;5089337;28;20060;-54
2021/07/07 03:45:44;;;;;;;0.73;0.73;;;;;;;35.99;25.75;100508.66;5089429;28;20075;-59
2021/07/07 03:48:10;;;;;;;0.10;0.10;;;;;;;36.10;25.44;100512.47;5089341;28;20059;-60
2021/07/07 03:50:36;;;;;;;0.10;0.10;;;;;;;36.20;25.34;100510.00;5089075;28;20483;-61
2021/07/07 03:53:04;;;;;;;0.10;0.10;;;;;;;36.29;25.29;100516.75;5089365;28;20430;-61
2021/07/07 03:55:30;;;;;;;0.40;0.40;;;;;;;36.38;25.32;100523.50;5071144;28;20462;-60
2021/07/07 03:57:56;;;;;;;0.00;0.00;;;;;;;36.48;25.04;100524.56;5071167;28;20632;-60
2021/07/07 04:00:25;;;;;;;0.10;0.10;;;;;;;36.57;25.10;100522.34;5089325;28;20056;-60
2021/07/07 04:02:51;;;;;;;0.15;0.15;;;;;;;36.68;24.86;100529.69;5088759;28;20060;-60
2021/07/07 04:05:18;;;;;;;0.10;0.10;;;;;;;36.77;24.79;100525.53;5089243;28;20580;-60
2021/07/07 04:07:44;;;;;;;0.20;0.20;;;;;;;36.86;24.87;100534.97;5088867;28;20044;-60
2021/07/07 04:10:11;;;;;;;0.00;0.00;;;;;;;36.96;24.60;100528.91;5054700;28;20426;-60
2021/07/07 04:12:38;;;;;;;0.10;0.10;;;;;;;37.04;24.79;100526.66;5088791;28;20082;-60
2021/07/07 04:15:05;;;;;;;0.10;0.10;;;;;;;37.16;24.36;100531.28;5089210;28;20068;-58
2021/07/07 04:17:30;;;;;;;0.10;0.10;;;;;;;37.24;24.12;100528.19;5088852;28;20060;-59
2021/07/07 04:19:57;;;;;;;0.22;0.22;;;;;;;37.32;24.21;100522.31;5090196;28;20044;-60
2021/07/07 04:22:22;;;;;;;0.10;0.10;;;;;;;37.40;24.06;100528.22;5092910;28;20063;-57
2021/07/07 04:24:48;;;;;;;0.08;0.08;;;;;;;37.49;24.05;100534.16;5092502;28;20539;-59
2021/07/07 04:27:14;;;;;;;0.13;0.13;;;;;;;37.52;23.93;100522.75;5092810;28;20059;-61
2021/07/07 04:29:41;;;;;;;0.10;0.10;;;;;;;37.57;23.73;100513.84;5092580;28;20120;-59
2021/07/07 04:32:07;;;;;;;0.20;0.20;;;;;;;37.73;23.76;100540.31;5092702;28;20531;-60
2021/07/07 04:34:33;;;;;;;0.28;0.28;;;;;;;37.80;23.47;100530.91;5092442;28;20132;-60
2021/07/07 04:37:01;;;;;;;0.10;0.10;;;;;;;37.86;23.20;100532.63;5092778;28;20055;-60
2021/07/07 04:39:27;;;;;;;0.00;0.00;;;;;;;37.92;23.32;100526.25;5092684;28;20036;-61
2021/07/07 04:41:52;;;;;;;0.50;0.50;;;;;;;38.01;23.42;100530.22;5074063;28;20447;-60
2021/07/07 04:44:18;;;;;;;0.30;0.30;;;;;;;38.12;23.10;100530.38;5074650;28;20039;-60
2021/07/07 04:46:44;;;;;;;0.10;0.10;;;;;;;38.23;23.28;100537.66;5092389;28;20044;-60
2021/07/07 04:49:10;;;;;;;0.10;0.10;;;;;;;38.36;23.00;100537.31;5091330;28;20040;-60
2021/07/07 04:51:36;;;;;;;0.10;0.10;;;;;;;38.50;22.78;100541.38;5092320;28;20086;-60
2021/07/07 04:54:03;;;;;;;0.10;0.10;;;;;;;38.67;22.63;100535.91;5074348;28;20042;-60
2021/07/07 04:56:28;;;;;;;0.30;0.30;;;;;;;38.83;22.54;100533.16;5092406;28;20060;-60
2021/07/07 04:58:54;;;;;;;0.10;0.10;;;;;;;39.04;22.42;100531.50;5091956;28;20036;-60
2021/07/07 05:01:20;;;;;;;0.45;0.30;;;;;;;39.24;22.27;100528.19;5074264;28;20173;-60
2021/07/07 05:03:46;;;;;;;0.20;0.20;;;;;;;39.47;21.98;100531.50;5091991;28;20040;-59
2021/07/07 05:06:12;;;;;;;0.77;0.77;;;;;;;39.68;21.88;100526.28;5073998;28;20052;-59
2021/07/07 05:08:38;;;;;;;0.75;0.75;;;;;;;39.98;21.38;100532.84;5091807;28;20044;-59
2021/07/07 05:11:04;;;;;;;0.10;0.10;;;;;;;40.50;21.00;100532.16;5092047;28;20051;-59
2021/07/07 05:13:30;;;;;;;0.22;0.22;;;;;;;41.77;19.57;100542.59;5091906;28;20067;-59
2021/07/07 05:15:56;;;;;;;0.10;0.10;;;;;;;43.03;18.59;100528.78;5073856;28;20310;-59
2021/07/07 05:18:22;;;;;;;0.20;0.20;;;;;;;43.89;17.26;100536.56;5091905;28;20665;-59
2021/07/07 05:20:48;;;;;;;0.20;0.20;;;;;;;44.59;17.30;100545.31;5091631;28;20125;-59
2021/07/07 05:23:15;;;;;;;0.13;0.13;;;;;;;44.90;16.69;100554.06;5091833;28;20048;-59
2021/07/07 05:25:41;;;;;;;0.10;0.10;;;;;;;44.93;16.31;100554.31;5091790;28;20052;-59
2021/07/07 05:28:07;;;;;;;0.10;0.10;;;;;;;45.11;16.21;100557.41;5073605;28;20043;-59
2021/07/07 05:30:33;;;;;;;0.30;0.30;;;;;;;45.19;16.28;100570.56;5091129;28;20048;-61
2021/07/07 05:33:00;;;;;;;0.10;0.10;;;;;;;45.24;16.04;100559.44;5073394;28;20050;-60
2021/07/07 05:35:25;;;;;;;0.10;0.10;;;;;;;45.23;15.91;100558.63;5091653;28;20155;-60
2021/07/07 05:37:52;;;;;;;0.10;0.10;;;;;;;45.05;16.61;100562.19;5091232;28;20571;-60
2021/07/07 05:40:18;;;;;;;0.10;0.10;;;;;;;44.96;16.25;100562.00;5091484;28;20051;-59
2021/07/07 05:42:49;;;;;;;0.30;0.30;;;;;;;44.86;16.50;100559.34;5091130;28;20059;-58
2021/07/07 05:45:15;;;;;;;0.10;0.10;;;;;;;44.64;16.23;100561.78;5091362;28;20083;-59
2021/07/07 05:47:55;;;;;;;0.30;0.13;;;;;;;44.25;16.77;100555.53;5091043;28;20070;-60
2021/07/07 05:50:22;;;;;;;0.17;0.17;;;;;;;44.19;16.85;100564.97;5073225;28;20131;-59
2021/07/07 05:52:48;;;;;;;0.10;0.10;;;;;;;43.84;16.95;100558.63;5090975;28;20142;-59
2021/07/07 05:55:14;;;;;;;0.10;0.10;;;;;;;43.37;17.34;100552.81;5091085;28;20059;-60
2021/07/07 05:57:40;;;;;;;0.10;0.10;;;;;;;43.08;17.55;100564.50;5090913;28;20139;-61
2021/07/07 06:00:25;;;;;;;0.10;0.10;;;;;;;42.52;17.92;100562.97;5090925;28;20554;-60
2021/07/07 06:02:55;;;;;;;0.85;0.85;;;;;;;42.09;17.97;100565.16;5090768;28;20430;-60
2021/07/07 06:05:21;;;;;;;0.10;0.10;;;;;;;41.33;18.53;100566.88;5090965;28;20092;-60
2021/07/07 06:07:48;;;;;;;0.10;0.10;;;;;;;40.39;19.48;100555.91;5090697;28;20097;-59
2021/07/07 06:10:17;;;;;;;0.10;0.10;;;;;;;39.72;20.25;100566.53;5056109;28;20122;-60
2021/07/07 06:12:43;;;;;;;;;;;;;;;39.17;20.35;100561.19;5091217;28;20040;-59
2021/07/07 06:15:11;;;;;;;0.10;0.10;;;;;;;38.75;20.86;100566.31;5090769;28;19931;-60
2021/07/07 06:17:37;;;;;;;0.20;0.20;;;;;;;38.33;21.65;100562.38;5072358;28;20078;-60
2021/07/07 06:20:04;;;;;;;0.40;0.40;;;;;;;37.91;22.05;100570.97;5090386;28;20046;-60
2021/07/07 06:22:30;;;;;;;0.00;0.00;;;;;;;37.64;22.13;100566.31;5090549;28;20427;-60
2021/07/07 06:24:56;;;;;;;0.10;0.10;;;;;;;37.38;22.43;100565.78;5090324;28;20127;-60
2021/07/07 06:27:23;;;;;;;0.32;0.32;;;;;;;37.14;22.50;100557.94;5090500;28;20462;-59
2021/07/07 06:29:49;;;;;;;0.10;0.10;;;;;;;37.01;22.52;100568.00;5090154;28;20429;-59
2021/07/07 06:32:16;;;;;;;0.00;0.00;;;;;;;36.75;23.03;100559.50;5090526;28;20063;-60
2021/07/07 06:34:42;;;;;;;0.22;0.22;;;;;;;36.58;23.19;100564.84;5072397;28;20503;-57
2021/07/07 06:37:09;;;;;;;0.10;0.10;;;;;;;36.41;23.33;100564.69;5090293;28;20510;-57
2021/07/07 06:39:36;;;;;;;0.10;0.10;;;;;;;36.26;23.55;100564.28;5072512;28;20055;-56
2021/07/07 06:42:03;;;;;;;0.00;0.00;;;;;;;36.16;23.48;100560.50;5089673;28;20040;-58
2021/07/07 06:44:29;;;;;;;0.10;0.10;;;;;;;36.05;23.67;100560.22;5072212;28;20109;-57
2021/07/07 06:46:55;;;;;;;0.10;0.10;;;;;;;35.93;24.01;100562.06;5089962;28;20052;-56
2021/07/07 06:49:20;;;;;;;0.25;0.25;;;;;;;35.82;24.23;100573.75;5090013;28;20071;-58
2021/07/07 06:51:48;;;;;;;0.10;0.10;;;;;;;35.61;24.30;100557.94;5090014;28;20101;-56
2021/07/07 06:54:14;;;;;;;0.20;0.20;;;;;;;35.50;24.11;100555.97;5089961;28;20083;-56
2021/07/07 06:56:40;;;;;;;0.10;0.10;;;;;;;35.54;24.57;100563.44;5089812;28;20101;-57
2021/07/07 06:59:05;;;;;;;0.10;0.10;;;;;;;35.51;24.28;100568.50;5089870;28;20048;-56
2021/07/07 07:01:31;;;;;;;0.35;0.35;;;;;;;35.38;24.53;100564.06;5089806;28;20132;-57
2021/07/07 07:03:57;;;;;;;0.10;0.10;;;;;;;35.30;24.81;100560.84;5071525;28;20044;-57
2021/07/07 07:06:23;;;;;;;0.22;0.22;;;;;;;35.18;24.69;100562.69;5089921;28;20144;-59
2021/07/07 07:08:49;;;;;;;0.00;0.00;;;;;;;35.16;24.88;100564.75;5089554;28;20048;-59
2021/07/07 07:11:17;;;;;;;0.30;0.30;;;;;;;35.25;24.18;100568.81;5089857;28;20075;-58
2021/07/07 07:13:45;;;;;;;0.05;0.05;;;;;;;35.03;24.14;100533.97;5089604;28;20127;-59
2021/07/07 07:16:11;;;;;;;0.08;0.08;;;;;;;35.07;23.88;100547.94;5089580;28;20116;-59
2021/07/07 07:18:37;;;;;;;0.05;0.05;;;;;;;35.00;23.87;100566.19;5089578;28;20047;-61
2021/07/07 07:21:03;;;;;;;0.00;0.00;;;;;;;34.74;23.89;100556.44;5089389;28;20048;-58
2021/07/07 07:23:29;;;;;;;0.00;0.00;;;;;;;34.78;23.92;100563.09;5089486;28;20058;-59
2021/07/07 07:25:55;;;;;;;0.22;0.22;;;;;;;34.76;24.10;100567.03;5089532;28;20052;-59
2021/07/07 07:28:21;;;;;;;0.10;0.10;;;;;;;34.72;23.75;100563.94;5088453;28;20544;-59
2021/07/07 07:30:47;;;;;;;0.32;0.32;;;;;;;34.57;23.90;100560.75;5089421;28;20117;-58
2021/07/07 07:33:13;;;;;;;0.00;0.00;;;;;;;34.42;23.69;100554.84;5089796;28;20530;-59
2021/07/07 07:35:41;;;;;;;0.00;0.00;;;;;;;34.31;23.76;100560.97;5071689;28;20052;-58
2021/07/07 07:38:12;;;;;;;0.00;0.00;;;;;;;34.24;24.38;100560.19;5071436;28;20044;-58
2021/07/07 07:40:40;;;;;;;0.08;0.08;;;;;;;34.19;24.30;100560.03;5072070;28;20043;-59
2021/07/07 07:43:09;;;;;;;0.00;0.00;;;;;;;34.13;24.66;100572.56;5089558;28;20461;-58
2021/07/07 07:45:35;;;;;;;0.10;0.10;;;;;;;34.13;24.25;100564.44;5088235;28;20055;-57
2021/07/07 07:48:01;;;;;;;0.00;0.00;;;;;;;34.03;24.34;100556.75;5089191;28;20185;-58
2021/07/07 07:50:27;;;;;;;0.00;0.00;;;;;;;33.96;24.85;100555.16;5071074;28;20048;-58
2021/07/07 07:52:54;;;;;;;0.00;0.00;;;;;;;33.87;24.89;100560.00;5071319;28;20079;-58
2021/07/07 07:55:20;;;;;;;0.10;0.10;;;;;;;33.75;25.00;100561.75;5093051;28;20056;-58
2021/07/07 07:57:48;;;;;;;0.10;0.10;;;;;;;33.62;25.09;100561.84;5075064;28;20105;-59
2021/07/07 08:00:16;;;;;;;0.00;0.00;;;;;;;33.47;25.08;100556.69;5093634;28;20415;-58
2021/07/07 08:02:44;;;;;;;0.17;0.17;;;;;;;33.29;24.82;100558.41;5074995;28;20051;-58
2021/07/07 08:05:10;;;;;;;0.00;0.00;;;;;;;33.19;24.90;100561.56;5093302;28;20134;-58
2021/07/07 08:07:38;;;;;;;0.10;0.10;;;;;;;33.17;24.76;100579.91;5093285;28;20123;-58
2021/07/07 08:10:04;;;;;;;0.10;0.10;;;;;;;33.11;25.20;100580.78;5092771;28;20044;-59
2021/07/07 08:12:30;;;;;;;0.00;0.00;;;;;;;33.00;25.37;100578.69;5075240;28;20440;-57
2021/07/07 08:14:56;;;;;;;0.00;0.00;;;;;;;32.95;25.24;100573.91;5092912;28;20398;-59
2021/07/07 08:17:22;;;;;;;0.00;0.00;;;;;;;32.87;25.31;100570.59;5093290;28;20052;-57
2021/07/07 08:19:48;;;;;;;0.00;0.00;;;;;;;32.77;25.46;100573.72;5092665;28;20047;-59
2021/07/07 08:22:16;;;;;;;0.00;0.00;;;;;;;32.77;25.70;100573.72;5074817;28;20106;-59
2021/07/07 08:24:42;;;;;;;0.00;0.00;;;;;;;32.65;25.53;100570.00;5093007;28;20059;-59
2021/07/07 08:27:08;;;;;;;0.00;0.00;;;;;;;32.66;25.71;100585.19;5092976;28;20048;-59
2021/07/07 08:29:35;;;;;;;0.28;0.28;;;;;;;32.65;25.79;100582.72;5074764;28;20435;-59
2021/07/07 08:32:03;;;;;;;0.10;0.10;;;;;;;32.61;25.74;100593.13;5092651;28;20048;-58
2021/07/07 08:34:29;;;;;;;0.00;0.00;;;;;;;32.46;25.60;100587.06;5092619;28;20043;-58
2021/07/07 08:36:55;;;;;;;0.17;0.17;;;;;;;32.29;25.71;100575.00;5092445;28;20131;-58
2021/07/07 08:39:21;;;;;;;0.00;0.00;;;;;;;32.31;25.99;100594.53;5092757;28;20159;-58
2021/07/07 08:41:48;;;;;;;0.00;0.00;;;;;;;32.29;25.96;100596.63;5074414;28;20044;-57
2021/07/07 08:44:14;;;;;;;0.00;0.00;;;;;;;32.15;26.05;100586.81;5057919;28;20048;-56
2021/07/07 08:46:40;;;;;;;0.03;0.03;;;;;;;32.11;26.50;100601.78;5074623;28;20130;-58
2021/07/07 08:49:06;;;;;;;0.00;0.00;;;;;;;32.00;26.35;100576.97;5092122;28;20062;-57
2021/07/07 08:51:38;;;;;;;0.00;0.00;;;;;;;31.96;26.53;100591.97;5092369;28;20059;-57
2021/07/07 08:54:05;;;;;;;0.00;0.00;;;;;;;31.87;26.22;100585.06;5092073;28;20052;-57
2021/07/07 08:56:31;;;;;;;0.00;0.00;;;;;;;31.84;26.34;100592.78;5074302;28;20056;-58
2021/07/07 08:58:57;;;;;;;0.00;0.00;;;;;;;31.76;26.35;100580.28;5092100;28;20507;-60
2021/07/07 09:01:23;;;;;;;0.00;0.00;;;;;;;31.70;26.38;100581.09;5092304;28;20058;-59
2021/07/07 09:03:49;;;;;;;0.10;0.10;;;;;;;31.62;26.58;100577.72;5091888;28;20419;-58
2021/07/07 09:06:16;;;;;;;0.00;0.00;;;;;;;31.60;26.45;100596.00;5091269;28;20423;-59
2021/07/07 09:08:46;;;;;;;0.00;0.00;;;;;;;31.54;26.50;100592.25;5040962;28;20072;-59
2021/07/07 09:11:16;;;;;;;0.00;0.00;;;;;;;31.55;26.59;100591.19;5092069;28;20040;-57
2021/07/07 09:13:44;;;;;;;0.00;0.00;;;;;;;31.44;26.31;100575.56;5091965;28;20048;-59
2021/07/07 09:16:14;;;;;;;0.00;0.00;;;;;;;31.52;26.61;100590.78;5091562;28;20059;-57
2021/07/07 09:18:40;;;;;;;0.00;0.00;;;;;;;31.47;26.54;100588.66;5091921;28;20076;-57
2021/07/07 09:21:24;;;;;;;0.03;0.03;;;;;;;31.40;26.71;100591.34;5056856;28;20080;-57
2021/07/07 09:23:51;;;;;;;0.00;0.00;;;;;;;31.38;26.60;100587.19;5091449;28;20055;-58
2021/07/07 09:26:17;;;;;;;0.00;0.00;;;;;;;31.20;26.80;100563.41;5073810;28;20438;-56
2021/07/07 09:28:43;;;;;;;0.03;0.03;;;;;;;31.32;27.02;100587.97;5057059;28;20044;-58
2021/07/07 09:31:29;;;;;;;0.00;0.00;;;;;;;31.27;27.13;100588.56;5056750;28;20460;-57
2021/07/07 09:34:09;;;;;;;0.00;0.00;;;;;;;31.24;27.26;100588.16;5091275;28;20045;-59
2021/07/07 09:36:38;;;;;;;0.10;0.10;;;;;;;31.22;27.14;100587.50;5091622;28;20048;-58
2021/07/07 09:39:04;;;;;;;0.10;0.10;;;;;;;31.19;27.37;100583.34;5073274;28;20099;-59
2021/07/07 09:41:30;;;;;;;0.00;0.00;;;;;;;31.19;27.49;100577.94;5090229;28;20530;-57
2021/07/07 09:43:56;;;;;;;0.17;0.17;;;;;;;31.20;27.29;100586.88;5073208;28;20048;-59
2021/07/07 09:46:22;;;;;;;0.00;0.00;;;;;;;31.17;27.27;100585.41;5091427;28;20495;-59
2021/07/07 09:48:50;;;;;;;0.10;0.10;;;;;;;31.12;27.35;100578.94;5089733;28;20040;-58
2021/07/07 09:51:16;;;;;;;0.00;0.00;;;;;;;31.11;27.60;100570.03;5091114;28;20074;-59
2021/07/07 09:53:42;;;;;;;0.10;0.10;;;;;;;31.07;27.80;100573.31;5091339;28;20434;-57
2021/07/07 09:56:08;;;;;;;0.00;0.00;;;;;;;31.10;27.75;100586.41;5090978;28;20152;-58
2021/07/07 09:58:34;;;;;;;0.32;0.30;;;;;;;31.10;27.72;100581.00;5073031;28;20048;-58
2021/07/07 10:01:00;;;;;;;0.00;0.00;;;;;;;31.09;27.90;100580.16;5072689;28;20054;-57
2021/07/07 10:03:26;;;;;;;0.00;0.00;;;;;;;31.09;27.72;100565.84;5091055;28;20044;-59
2021/07/07 10:05:52;;;;;;;0.10;0.10;;;;;;;30.99;27.64;100564.34;5072652;28;20056;-59
2021/07/07 10:08:18;;;;;;;4.97;0.85;;;;;;;31.07;27.87;100573.31;5091072;28;20048;-60
2021/07/07 10:10:44;;;;;;;0.00;0.00;;;;;;;30.96;27.70;100562.03;5090934;28;20073;-58
2021/07/07 10:13:11;;;;;;;0.30;0.30;;;;;;;30.94;28.04;100558.69;5072445;28;20070;-57
2021/07/07 10:15:37;;;;;;;0.00;0.00;;;;;;;31.04;27.77;100579.09;5090766;28;20078;-58
2021/07/07 10:18:03;;;;;;;0.03;0.03;;;;;;;31.03;27.82;100577.44;5090768;28;20463;-58
2021/07/07 10:20:29;;;;;;;0.08;0.08;;;;;;;31.04;27.87;100579.94;5072608;28;20530;-58
2021/07/07 10:22:55;;;;;;;0.00;0.00;;;;;;;31.05;27.70;100575.38;5090359;28;20054;-58
2021/07/07 10:25:23;;;;;;;0.00;0.00;;;;;;;31.04;27.71;100571.84;5090722;28;20052;-57
2021/07/07 10:27:49;;;;;;;0.10;0.10;;;;;;;31.03;27.94;100572.03;5056133;28;20135;-58
2021/07/07 10:30:15;;;;;;;0.00;0.00;;;;;;;31.04;27.90;100571.00;5055678;28;20052;-59
2021/07/07 10:33:05;;;;;;;0.00;0.00;;;;;;;31.03;28.03;100555.84;5072283;28;20048;-59
2021/07/07 10:35:31;;;;;;;0.00;0.00;;;;;;;30.97;27.94;100558.31;5073821;28;20048;-59
2021/07/07 10:37:57;;;;;;;0.10;0.10;;;;;;;30.95;27.64;100565.78;5090081;28;20142;-59
2021/07/07 10:40:27;;;;;;;0.00;0.00;;;;;;;30.96;27.80;100559.34;5090233;28;20095;-58
2021/07/07 10:42:53;;;;;;;0.00;0.00;;;;;;;30.94;27.86;100539.81;5071784;28;20177;-59
2021/07/07 10:45:40;;;;;;;0.00;0.00;;;;;;;30.94;27.96;100555.97;5072150;28;20051;-61
2021/07/07 10:48:22;;;;;;;0.10;0.10;;;;;;;30.92;27.97;100560.72;5089808;28;20139;-58
2021/07/07 10:50:48;;;;;;;0.00;0.00;;;;;;;30.84;28.11;100552.81;5088758;28;20055;-58
2021/07/07 10:53:33;;;;;;;0.03;0.03;;;;;;;30.91;28.07;100564.47;5071737;28;20576;-59
2021/07/07 10:56:48;;;;;;;0.00;0.00;;;;;;;30.90;28.05;100560.09;5090175;28;20143;-60
2021/07/07 10:59:46;;;;;;;0.17;0.17;;;;;;;30.89;28.24;100561.13;5063954;28;20036;-60
2021/07/07 11:02:32;;;;;;;0.05;0.05;;;;;;;30.84;28.15;100555.50;5090227;28;20554;-58
2021/07/07 11:05:24;;;;;;;0.10;0.10;;;;;;;30.79;28.17;100539.06;5089981;28;20044;-58
2021/07/07 11:08:16;;;;;;;0.10;0.10;;;;;;;30.85;28.16;100559.88;5089415;28;20052;-56
2021/07/07 11:11:02;;;;;;;0.00;0.00;;;;;;;30.82;28.20;100533.31;5089538;28;20054;-57
2021/07/07 11:13:48;;;;;;;0.00;0.00;;;;;;;30.88;28.27;100564.03;5089901;28;20616;-57
2021/07/07 11:16:43;;;;;;;0.20;0.20;;;;;;;30.85;28.26;100554.50;5087556;28;20050;-55
2021/07/07 11:19:45;;;;;;;0.00;0.00;;;;;;;30.83;28.32;100545.75;5061580;28;20073;-56
2021/07/07 11:22:31;;;;;;;0.20;0.20;;;;;;;30.83;28.46;100539.50;5089788;28;20629;-57
2021/07/07 11:25:16;;;;;;;0.00;0.00;;;;;;;30.71;28.51;100524.91;5089435;28;20054;-56
2021/07/07 11:28:04;;;;;;;0.00;0.00;;;;;;;30.82;28.65;100554.88;5089259;28;20063;-56